createdAt,value
2023-03-12T00:00:52.814Z,8.98
2023-03-12T00:03:20.321Z,9.77
2023-03-12T00:05:47.780Z,6.53
2023-03-12T00:08:15.235Z,7.95
2023-03-12T00:10:43.040Z,11.30
2023-03-12T00:13:11.842Z,8.05
2023-03-12T00:15:39.610Z,7.03
2023-03-12T00:18:07.370Z,8.27
2023-03-12T00:20:34.949Z,8.27
2023-03-12T00:23:02.471Z,6.90
2023-03-12T00:25:30.076Z,7.10
2023-03-12T00:27:57.526Z,9.73
2023-03-12T00:30:28.357Z,8.63
2023-03-12T00:32:55.939Z,7.55
2023-03-12T00:35:23.407Z,8.68
2023-03-12T00:37:50.959Z,10.70
2023-03-12T00:40:18.666Z,8.75
2023-03-12T00:42:46.081Z,7.57
2023-03-12T00:45:13.766Z,8.70
2023-03-12T00:47:45.763Z,6.78
2023-03-12T00:50:13.369Z,10.85
2023-03-12T00:52:41.065Z,6.00
2023-03-12T00:55:09.229Z,5.65
2023-03-12T00:57:36.629Z,7.40
2023-03-12T01:00:10.287Z,8.45
2023-03-12T01:02:38.626Z,4.28
2023-03-12T01:05:10.797Z,10.02
2023-03-12T01:07:38.401Z,8.43
2023-03-12T01:10:08.105Z,8.25
2023-03-12T01:12:35.920Z,7.43
2023-03-12T01:15:04.353Z,6.53
2023-03-12T01:17:31.975Z,6.70
2023-03-12T01:20:00.669Z,5.28
2023-03-12T01:22:31.680Z,5.30
2023-03-12T01:24:59.298Z,7.03
2023-03-12T01:27:26.816Z,6.03
2023-03-12T01:29:54.675Z,6.53
2023-03-12T01:32:22.416Z,7.85
2023-03-12T01:34:49.911Z,5.10
2023-03-12T01:37:17.360Z,7.43
2023-03-12T01:39:46.182Z,5.60
2023-03-12T01:42:13.688Z,7.68
2023-03-12T01:44:52.832Z,9.43
2023-03-12T01:47:20.842Z,6.32
2023-03-12T01:49:49.987Z,4.45
2023-03-12T01:52:21.237Z,6.93
2023-03-12T01:55:02.561Z,6.85
2023-03-12T01:57:35.661Z,6.32
2023-03-12T02:00:08.830Z,6.03
2023-03-12T02:02:47.405Z,5.95
2023-03-12T02:05:25.469Z,10.15
2023-03-12T02:07:53.373Z,7.82
2023-03-12T02:10:25.231Z,5.47
2023-03-12T02:12:56.849Z,9.13
2023-03-12T02:15:24.625Z,6.32
2023-03-12T02:17:54.162Z,5.65
2023-03-12T02:20:31.866Z,8.70
2023-03-12T02:23:06.409Z,7.18
2023-03-12T02:25:38.743Z,8.20
2023-03-12T02:28:09.699Z,5.28
2023-03-12T02:30:40.206Z,5.80
2023-03-12T02:33:09.798Z,5.78
2023-03-12T02:35:38.261Z,5.57
2023-03-12T02:38:33.801Z,6.72
2023-03-12T02:41:05.906Z,5.63
2023-03-12T02:43:33.424Z,5.25
2023-03-12T02:46:01.017Z,6.75
2023-03-12T02:48:28.901Z,4.85
2023-03-12T02:50:56.313Z,6.40
2023-03-12T02:53:23.776Z,6.30
2023-03-12T02:55:51.299Z,7.53
2023-03-12T02:58:20.382Z,4.95
2023-03-12T03:00:48.974Z,6.93
2023-03-12T03:03:16.439Z,5.80
2023-03-12T03:05:43.921Z,6.15
2023-03-12T03:08:11.439Z,8.25
2023-03-12T03:10:39.014Z,5.20
2023-03-12T03:13:06.803Z,6.28
2023-03-12T03:15:35.669Z,5.72
2023-03-12T03:18:03.938Z,5.53
2023-03-12T03:20:32.076Z,7.95
2023-03-12T03:22:59.476Z,7.35
2023-03-12T03:25:29.510Z,4.85
2023-03-12T03:27:56.963Z,8.10
2023-03-12T03:30:24.534Z,6.55
2023-03-12T03:32:54.710Z,5.75
2023-03-12T03:35:22.596Z,5.75
2023-03-12T03:37:50.193Z,4.25
2023-03-12T03:40:18.218Z,5.38
2023-03-12T03:42:45.849Z,7.35
2023-03-12T03:45:13.411Z,5.07
2023-03-12T03:47:43.448Z,8.60
2023-03-12T03:50:13.302Z,5.32
2023-03-12T03:52:40.728Z,6.28
2023-03-12T03:55:09.534Z,4.53
2023-03-12T03:57:37.383Z,5.40
2023-03-12T04:00:09.656Z,4.40
2023-03-12T04:02:40.997Z,5.97
2023-03-12T04:05:11.247Z,5.28
2023-03-12T04:07:40.779Z,4.40
2023-03-12T04:10:09.846Z,5.90
2023-03-12T04:12:37.604Z,6.90
2023-03-12T04:15:06.579Z,5.15
2023-03-12T04:17:34.207Z,5.85
2023-03-12T04:20:07.144Z,4.50
2023-03-12T04:22:35.310Z,5.80
2023-03-12T04:25:07.356Z,4.78
2023-03-12T04:27:35.972Z,5.38
2023-03-12T04:30:04.697Z,5.30
2023-03-12T04:32:33.926Z,6.18
2023-03-12T04:35:01.395Z,4.55
2023-03-12T04:37:32.497Z,6.90
2023-03-12T04:40:01.632Z,6.53
2023-03-12T04:42:31.767Z,6.18
2023-03-12T04:44:59.523Z,6.40
2023-03-12T04:47:27.133Z,6.93
2023-03-12T04:49:54.614Z,5.88
2023-03-12T04:52:22.337Z,4.55
2023-03-12T04:54:49.819Z,7.50
2023-03-12T04:57:17.292Z,5.78
2023-03-12T04:59:46.539Z,7.95
2023-03-12T05:02:14.061Z,6.07
2023-03-12T05:04:42.524Z,7.57
2023-03-12T05:07:10.114Z,4.45
2023-03-12T05:09:38.003Z,7.65
2023-03-12T05:12:07.177Z,4.22
2023-03-12T05:14:34.701Z,6.55
2023-03-12T05:17:05.258Z,5.38
2023-03-12T05:19:32.660Z,4.55
2023-03-12T05:22:00.103Z,7.60
2023-03-12T05:24:28.524Z,6.65
2023-03-12T05:26:55.934Z,5.45
2023-03-12T05:29:24.972Z,7.05
2023-03-12T05:31:53.768Z,4.35
2023-03-12T05:34:22.750Z,7.63
2023-03-12T05:36:50.185Z,4.78
2023-03-12T05:39:22.342Z,5.97
2023-03-12T05:41:50.091Z,5.63
2023-03-12T05:44:20.082Z,5.57
2023-03-12T05:46:52.756Z,7.15
2023-03-12T05:49:21.815Z,8.88
2023-03-12T05:51:50.297Z,6.72
2023-03-12T05:54:19.855Z,5.22
2023-03-12T05:56:50.627Z,5.80
2023-03-12T05:59:18.579Z,7.95
2023-03-12T06:01:46.669Z,4.25
2023-03-12T06:04:14.767Z,5.53
2023-03-12T06:06:43.787Z,5.55
2023-03-12T06:09:11.338Z,5.38
2023-03-12T06:11:38.939Z,8.48
2023-03-12T06:14:06.441Z,4.78
2023-03-12T06:16:35.748Z,6.32
2023-03-12T06:19:04.942Z,6.35
2023-03-12T06:21:35.962Z,6.07
2023-03-12T06:24:07.979Z,7.78
2023-03-12T06:26:45.317Z,5.38
2023-03-12T06:29:12.908Z,6.32
2023-03-12T06:31:42.123Z,4.63
2023-03-12T06:34:10.294Z,4.25
2023-03-12T06:36:37.856Z,6.38
2023-03-12T06:39:06.683Z,7.40
2023-03-12T06:41:34.170Z,4.72
2023-03-12T06:44:05.953Z,4.80
2023-03-12T06:46:33.834Z,4.70
2023-03-12T06:49:04.184Z,5.90
2023-03-12T06:51:31.651Z,5.50
2023-03-12T06:54:02.212Z,6.90
2023-03-12T06:56:31.861Z,4.43
2023-03-12T06:58:59.693Z,5.07
2023-03-12T07:01:27.678Z,9.70
2023-03-12T07:03:55.301Z,5.53
2023-03-12T07:06:24.392Z,5.13
2023-03-12T07:08:52.528Z,7.32
2023-03-12T07:11:20.071Z,5.70
2023-03-12T07:13:49.115Z,6.13
2023-03-12T07:16:16.823Z,6.60
2023-03-12T07:18:44.368Z,8.63
2023-03-12T07:21:12.209Z,7.93
2023-03-12T07:23:40.052Z,7.00
2023-03-12T07:26:07.938Z,10.20
2023-03-12T07:28:35.561Z,8.27
2023-03-12T07:31:05.166Z,11.02
2023-03-12T07:33:33.196Z,8.80
2023-03-12T07:36:00.979Z,9.35
2023-03-12T07:38:28.571Z,9.13
2023-03-12T07:40:58.184Z,6.90
2023-03-12T07:43:26.141Z,8.15
2023-03-12T07:45:55.301Z,10.73
2023-03-12T07:48:24.182Z,11.82
2023-03-12T07:50:52.258Z,14.13
2023-03-12T07:53:20.012Z,11.35
2023-03-12T07:55:48.308Z,12.23
2023-03-12T07:58:16.710Z,15.07
2023-03-12T08:00:44.932Z,20.10
2023-03-12T08:03:13.183Z,17.25
2023-03-12T08:05:42.477Z,17.00
2023-03-12T08:08:10.224Z,13.27
2023-03-12T08:10:37.933Z,18.00
2023-03-12T08:13:05.518Z,17.65
2023-03-12T08:15:33.505Z,18.60
2023-03-12T08:18:01.413Z,43.58
2023-03-12T08:20:28.981Z,30.90
2023-03-12T08:22:57.874Z,19.17
2023-03-12T08:25:25.585Z,17.58
2023-03-12T08:27:53.075Z,19.80
2023-03-12T08:30:21.064Z,18.33
2023-03-12T08:32:48.577Z,16.83
2023-03-12T08:35:16.527Z,20.70
2023-03-12T08:37:43.990Z,15.63
2023-03-12T08:40:13.648Z,16.27
2023-03-12T08:42:42.100Z,19.67
2023-03-12T08:45:11.142Z,18.00
2023-03-12T08:47:41.623Z,17.55
2023-03-12T08:50:11.370Z,20.10
2023-03-12T08:52:39.124Z,18.33
2023-03-12T08:55:07.403Z,17.35
2023-03-12T08:57:36.293Z,17.90
2023-03-12T09:00:11.411Z,16.73
2023-03-12T09:02:39.189Z,16.77
2023-03-12T09:05:07.605Z,18.20
2023-03-12T09:07:35.337Z,19.83
2023-03-12T09:10:03.265Z,17.60
2023-03-12T09:12:31.125Z,17.67
2023-03-12T09:15:04.720Z,17.42
2023-03-12T09:17:32.689Z,20.30
2023-03-12T09:20:00.839Z,17.95
2023-03-12T09:22:29.356Z,16.42
2023-03-12T09:24:56.896Z,17.98
2023-03-12T09:27:24.707Z,16.92
2023-03-12T09:30:00.183Z,14.05
2023-03-12T09:32:29.762Z,17.92
2023-03-12T09:34:57.348Z,16.05
2023-03-12T09:37:25.043Z,14.90
2023-03-12T09:39:53.318Z,15.07
2023-03-12T09:42:25.213Z,16.77
2023-03-12T09:44:54.899Z,14.95
2023-03-12T09:47:27.162Z,17.83
2023-03-12T09:50:02.740Z,11.93
2023-03-12T09:52:33.998Z,13.93
2023-03-12T09:55:07.108Z,17.88
2023-03-12T09:57:34.856Z,16.48
2023-03-12T10:00:02.576Z,12.85
2023-03-12T10:03:08.668Z,14.30
2023-03-12T10:05:45.922Z,10.70
2023-03-12T10:08:26.918Z,12.73
2023-03-12T10:11:03.772Z,12.20
2023-03-12T10:13:52.599Z,12.20
2023-03-12T10:16:44.395Z,15.65
2023-03-12T10:19:28.126Z,13.05
2023-03-12T10:22:11.688Z,12.25
2023-03-12T10:24:51.135Z,13.98
2023-03-12T10:27:19.087Z,25.00
2023-03-12T10:29:50.019Z,15.43
2023-03-12T10:32:21.987Z,17.02
2023-03-12T10:34:52.774Z,12.32
2023-03-12T10:37:24.799Z,13.15
2023-03-12T10:39:53.970Z,10.18
2023-03-12T10:42:23.240Z,16.10
2023-03-12T10:44:53.037Z,14.90
2023-03-12T10:47:35.847Z,12.52
2023-03-12T10:50:16.710Z,9.82
2023-03-12T10:52:47.305Z,9.38
2023-03-12T10:55:22.570Z,12.52
2023-03-12T10:57:51.049Z,18.42
2023-03-12T11:00:22.131Z,14.02
2023-03-12T11:02:58.907Z,10.82
2023-03-12T11:05:49.065Z,12.80
2023-03-12T11:10:48.436Z,7.00
2023-03-12T11:13:28.835Z,14.75
2023-03-12T11:15:57.680Z,11.45
2023-03-12T11:18:29.411Z,11.45
2023-03-12T11:21:11.938Z,14.27
2023-03-12T11:23:44.164Z,13.45
2023-03-12T11:26:15.910Z,13.93
2023-03-12T11:28:47.167Z,12.88
2023-03-12T11:31:21.903Z,9.65
2023-03-12T11:33:51.138Z,14.43
2023-03-12T11:36:31.259Z,14.02
2023-03-12T11:39:06.610Z,11.25
2023-03-12T11:41:49.931Z,11.93
2023-03-12T11:44:25.563Z,9.00
2023-03-12T11:47:11.943Z,10.93
2023-03-12T11:49:54.235Z,9.88
2023-03-12T11:55:30.216Z,7.60
2023-03-12T11:58:20.028Z,9.23
2023-03-12T12:00:55.824Z,5.55
2023-03-12T12:03:55.284Z,9.82
2023-03-12T12:06:33.643Z,19.90
2023-03-12T12:09:10.336Z,29.10
2023-03-12T12:11:48.669Z,18.30
2023-03-12T12:14:28.794Z,24.52
2023-03-12T12:17:05.653Z,16.90
2023-03-12T12:19:48.122Z,19.23
2023-03-12T12:22:39.352Z,14.38
2023-03-12T12:25:24.278Z,15.80
2023-03-12T12:28:11.503Z,11.10
2023-03-12T12:30:57.309Z,9.50
2023-03-12T12:33:36.310Z,9.95
2023-03-12T12:36:03.933Z,5.75
2023-03-12T12:38:36.748Z,11.98
2023-03-12T12:41:09.984Z,12.63
2023-03-12T12:43:39.272Z,11.80
2023-03-12T12:46:14.853Z,14.05
2023-03-12T12:48:46.388Z,7.15
2023-03-12T12:51:16.634Z,7.03
2023-03-12T12:53:51.110Z,5.13
2023-03-12T12:56:25.420Z,8.23
2023-03-12T12:59:25.379Z,5.78
2023-03-12T13:01:55.913Z,4.95
2023-03-12T13:04:26.775Z,5.20
2023-03-12T13:06:56.872Z,5.72
2023-03-12T13:09:36.747Z,4.65
2023-03-12T13:12:13.909Z,3.97
2023-03-12T13:14:43.072Z,5.15
2023-03-12T13:17:30.907Z,4.95
2023-03-12T13:20:14.193Z,3.42
2023-03-12T13:23:09.322Z,4.35
2023-03-12T13:25:55.480Z,4.07
2023-03-12T13:29:11.341Z,3.92
2023-03-12T13:31:41.463Z,4.70
2023-03-12T13:34:45.791Z,4.82
2023-03-12T13:38:04.678Z,3.72
2023-03-12T13:40:53.566Z,6.25
2023-03-12T13:43:56.131Z,6.78
2023-03-12T13:49:16.435Z,6.97
2023-03-12T13:51:47.284Z,4.60
2023-03-12T13:54:19.227Z,4.85
2023-03-12T13:56:56.564Z,4.60
2023-03-12T13:59:26.251Z,3.05
2023-03-12T14:01:57.910Z,4.00
2023-03-12T14:04:33.023Z,4.55
2023-03-12T14:07:16.412Z,7.40
2023-03-12T14:09:52.287Z,10.50
2023-03-12T14:12:26.700Z,4.38
2023-03-12T14:15:05.498Z,4.97
2023-03-12T14:17:36.405Z,3.97
2023-03-12T14:20:10.759Z,5.03
2023-03-12T14:22:43.202Z,4.18
2023-03-12T14:25:16.962Z,6.80
2023-03-12T14:27:46.477Z,3.80
2023-03-12T14:30:21.280Z,7.65
2023-03-12T14:32:52.349Z,3.80
2023-03-12T14:35:23.272Z,7.20
2023-03-12T14:37:56.815Z,5.05
2023-03-12T14:40:35.587Z,5.45
2023-03-12T14:43:03.055Z,4.18
2023-03-12T14:45:30.607Z,6.47
2023-03-12T14:47:58.556Z,6.43
2023-03-12T14:50:29.443Z,3.03
2023-03-12T14:53:12.329Z,3.88
2023-03-12T14:55:41.158Z,4.78
2023-03-12T14:58:17.175Z,5.75
2023-03-12T15:00:45.954Z,3.65
2023-03-12T15:03:16.615Z,5.70
2023-03-12T15:05:46.508Z,5.03
2023-03-12T15:08:14.816Z,4.47
2023-03-12T15:10:48.158Z,3.65
2023-03-12T15:13:17.386Z,3.97
2023-03-12T15:15:48.504Z,5.15
2023-03-12T15:18:18.908Z,4.50
2023-03-12T15:20:48.451Z,4.38
2023-03-12T15:23:18.512Z,3.83
2023-03-12T15:25:47.442Z,6.43
2023-03-12T15:28:27.744Z,5.60
2023-03-12T15:31:07.429Z,5.65
2023-03-12T15:33:34.971Z,6.88
2023-03-12T15:36:04.948Z,3.80
2023-03-12T15:38:35.074Z,4.18
2023-03-12T15:41:09.530Z,5.30
2023-03-12T15:43:37.691Z,8.05
2023-03-12T15:46:06.822Z,4.53
2023-03-12T15:48:37.282Z,4.18
2023-03-12T15:51:13.262Z,4.10
2023-03-12T15:53:40.856Z,4.53
2023-03-12T15:56:22.078Z,4.15
2023-03-12T15:58:59.905Z,5.65
2023-03-12T16:01:28.266Z,3.97
2023-03-12T16:03:55.968Z,5.28
2023-03-12T16:06:26.847Z,5.57
2023-03-12T16:08:57.053Z,7.63
2023-03-12T16:11:28.808Z,5.70
2023-03-12T16:14:03.688Z,4.65
2023-03-12T16:16:31.434Z,7.30
2023-03-12T16:18:59.038Z,8.20
2023-03-12T16:21:26.604Z,8.30
2023-03-12T16:23:54.081Z,6.80
2023-03-12T16:26:22.488Z,3.75
2023-03-12T16:28:51.528Z,5.40
2023-03-12T16:31:19.310Z,3.63
2023-03-12T16:33:47.460Z,4.93
2023-03-12T16:36:17.448Z,5.10
2023-03-12T16:38:45.573Z,5.35
2023-03-12T16:41:15.444Z,2.90
2023-03-12T16:43:46.562Z,6.03
2023-03-12T16:46:18.782Z,4.80
2023-03-12T16:48:50.618Z,5.18
2023-03-12T16:51:18.338Z,2.58
2023-03-12T16:53:49.099Z,5.47
2023-03-12T16:56:20.350Z,8.75
2023-03-12T16:58:49.779Z,6.40
2023-03-12T17:01:21.536Z,5.53
2023-03-12T17:03:49.666Z,4.60
2023-03-12T17:06:21.047Z,4.47
2023-03-12T17:08:49.046Z,6.38
2023-03-12T17:11:19.366Z,3.33
2023-03-12T17:13:50.147Z,5.10
2023-03-12T17:16:19.360Z,8.85
2023-03-12T17:18:47.191Z,5.40
2023-03-12T17:21:17.267Z,6.80
2023-03-12T17:23:46.636Z,5.68
2023-03-12T17:26:14.048Z,9.63
2023-03-12T17:28:41.630Z,7.07
2023-03-12T17:31:09.462Z,5.15
2023-03-12T17:33:38.510Z,11.02
2023-03-12T17:36:09.232Z,11.07
2023-03-12T17:38:36.917Z,10.35
2023-03-12T17:41:09.339Z,5.30
2023-03-12T17:43:41.816Z,6.90
2023-03-12T17:46:10.104Z,6.45
2023-03-12T17:48:38.942Z,8.10
2023-03-12T17:53:34.574Z,7.63
2023-03-12T17:56:02.250Z,5.20
2023-03-12T17:58:29.653Z,5.40
2023-03-12T18:00:59.114Z,6.72
2023-03-12T18:03:26.741Z,5.13
2023-03-12T18:05:55.694Z,9.98
2023-03-12T18:08:23.062Z,8.07
2023-03-12T18:10:50.722Z,10.45
2023-03-12T18:13:18.360Z,14.65
2023-03-12T18:15:52.435Z,15.40
2023-03-12T18:18:20.164Z,13.65
2023-03-12T18:20:48.586Z,13.10
2023-03-12T18:23:17.833Z,14.38
2023-03-12T18:25:46.081Z,10.52
2023-03-12T18:28:15.211Z,7.75
2023-03-12T18:30:45.332Z,13.43
2023-03-12T18:33:13.498Z,10.85
2023-03-12T18:35:40.992Z,13.70
2023-03-12T18:38:08.649Z,16.23
2023-03-12T18:40:37.488Z,10.70
2023-03-12T18:43:05.148Z,18.33
2023-03-12T18:45:32.604Z,19.40
2023-03-12T18:48:00.014Z,16.63
2023-03-12T18:50:27.494Z,12.75
2023-03-12T18:52:54.903Z,17.52
2023-03-12T18:55:22.534Z,25.13
2023-03-12T18:57:51.975Z,16.27
2023-03-12T19:00:19.857Z,14.45
2023-03-12T19:02:48.401Z,20.95
2023-03-12T19:05:16.684Z,18.55
2023-03-12T19:07:44.302Z,19.48
2023-03-12T19:10:12.982Z,27.55
2023-03-12T19:12:51.477Z,38.40
2023-03-12T19:15:24.416Z,21.45
2023-03-12T19:17:52.801Z,17.98
2023-03-12T19:20:20.901Z,22.95
2023-03-12T19:22:48.385Z,14.73
2023-03-12T19:25:15.964Z,13.48
2023-03-12T19:27:43.541Z,13.68
2023-03-12T19:30:13.631Z,9.77
2023-03-12T19:32:44.526Z,10.88
2023-03-12T19:35:14.172Z,9.40
2023-03-12T19:37:41.898Z,11.85
2023-03-12T19:40:13.301Z,10.07
2023-03-12T19:42:40.884Z,8.32
2023-03-12T19:45:09.582Z,9.55
2023-03-12T19:47:37.195Z,6.15
2023-03-12T19:50:07.018Z,9.00
2023-03-12T19:52:34.516Z,8.98
2023-03-12T19:55:05.124Z,7.50
2023-03-12T19:57:33.115Z,8.90
2023-03-12T20:00:00.696Z,8.40
2023-03-12T20:02:28.806Z,11.25
2023-03-12T20:04:56.337Z,8.23
2023-03-12T20:07:25.670Z,11.32
2023-03-12T20:09:53.092Z,10.73
2023-03-12T20:12:20.623Z,8.38
2023-03-12T20:14:48.051Z,12.70
2023-03-12T20:17:15.594Z,7.05
2023-03-12T20:19:43.030Z,9.88
2023-03-12T20:22:10.531Z,9.68
2023-03-12T20:24:39.326Z,8.43
2023-03-12T20:29:34.045Z,9.05
2023-03-12T20:32:01.512Z,9.15
2023-03-12T20:34:28.998Z,8.60
2023-03-12T20:36:57.794Z,12.45
2023-03-12T20:41:53.875Z,9.00
2023-03-12T20:46:48.739Z,12.63
2023-03-12T20:49:16.377Z,11.30
2023-03-12T20:51:44.650Z,9.68
2023-03-12T20:54:12.439Z,13.15
2023-03-12T20:56:43.509Z,16.15
2023-03-12T20:59:13.842Z,12.00
2023-03-12T21:01:41.433Z,11.60
2023-03-12T21:04:08.877Z,10.75
2023-03-12T21:06:36.340Z,11.20
2023-03-12T21:09:04.294Z,10.18
2023-03-12T21:11:31.844Z,9.20
2023-03-12T21:13:59.368Z,11.07
2023-03-12T21:16:28.406Z,10.77
2023-03-12T21:18:56.269Z,10.65
2023-03-12T21:21:24.280Z,9.15
2023-03-12T21:23:52.016Z,13.60
2023-03-12T21:26:20.015Z,9.20
2023-03-12T21:28:47.502Z,9.10
2023-03-12T21:31:16.998Z,9.95
2023-03-12T21:33:46.024Z,11.43
2023-03-12T21:36:15.163Z,11.32
2023-03-12T21:41:12.386Z,10.20
2023-03-12T21:43:40.481Z,8.27
2023-03-12T21:46:09.682Z,9.88
2023-03-12T21:48:38.052Z,9.90
2023-03-12T21:51:09.000Z,9.35
2023-03-12T21:53:37.244Z,9.02
2023-03-12T21:56:06.947Z,7.13
2023-03-12T21:58:35.357Z,8.35
2023-03-12T22:01:04.229Z,10.30
2023-03-12T22:05:59.186Z,10.50
2023-03-12T22:08:27.976Z,5.75
2023-03-12T22:10:55.567Z,11.32
2023-03-12T22:13:23.075Z,13.50
2023-03-12T22:15:54.276Z,13.52
2023-03-12T22:18:22.273Z,12.77
2023-03-12T22:20:53.041Z,6.80
2023-03-12T22:23:20.975Z,8.05
2023-03-12T22:25:49.884Z,10.15
2023-03-12T22:30:45.318Z,7.15
2023-03-12T22:33:13.068Z,9.80
2023-03-12T22:35:44.174Z,7.88
2023-03-12T22:38:12.225Z,7.25
2023-03-12T22:40:40.099Z,10.20
2023-03-12T22:43:09.105Z,7.82
2023-03-12T22:45:36.766Z,8.43
2023-03-12T22:48:04.759Z,8.15
2023-03-12T22:50:32.487Z,10.48
2023-03-12T22:53:00.282Z,6.30
2023-03-12T22:55:27.748Z,7.72
2023-03-12T22:57:55.200Z,7.28
2023-03-12T23:00:26.453Z,14.98
2023-03-12T23:02:54.326Z,9.88
2023-03-12T23:05:21.838Z,5.72
2023-03-12T23:07:49.844Z,9.82
2023-03-12T23:10:17.371Z,9.15
2023-03-12T23:12:44.797Z,8.63
2023-03-12T23:15:12.217Z,6.65
2023-03-12T23:17:41.037Z,14.63
2023-03-12T23:20:09.793Z,9.43
2023-03-12T23:22:37.255Z,6.35
2023-03-12T23:25:05.518Z,6.57
2023-03-12T23:27:32.946Z,12.13
2023-03-12T23:30:00.339Z,8.82
2023-03-12T23:32:27.824Z,11.25
2023-03-12T23:34:56.684Z,11.77
2023-03-12T23:39:54.853Z,9.82
2023-03-12T23:42:22.774Z,8.70
2023-03-12T23:44:50.251Z,10.05
2023-03-12T23:47:17.697Z,8.77
2023-03-12T23:49:45.077Z,7.95
2023-03-12T23:52:13.979Z,11.35
2023-03-12T23:57:08.592Z,9.50
2023-03-12T23:59:35.963Z,5.50
